| time (UTC) | temp C | wind direction | speed KPH | gust KPH | rain 1hr cm | rain 24hr cm | rain mn cm | humidity % | barometer mb |
| 20260508001543 | 23 | 271 | 11.3 | 17.7 | 0.00 | 0.00 | 0.00 | 19 | 1011.1 |
| 20260508000047 | 23 | 243 | 11.3 | 22.5 | 0.00 | 0.00 | 0.00 | 22 | 1011.0 |
| 20260507234540 | 22 | 280 | 11.3 | 19.3 | 0.00 | 0.00 | 0.00 | 22 | 1011.1 |
| 20260507233043 | 22 | 219 | 6.4 | 17.7 | 0.00 | 0.00 | 0.00 | 24 | 1011.2 |
| 20260507231537 | 22 | 290 | 14.5 | 25.7 | 0.00 | 0.00 | 0.00 | 22 | 1011.4 |
| 20260507230034 | 22 | 283 | 11.3 | 19.3 | 0.00 | 0.00 | 0.00 | 24 | 1011.5 |
| 20260507224539 | 22 | 165 | 9.7 | 14.5 | 0.00 | 0.00 | 0.00 | 23 | 1011.7 |
| 20260507223027 | 22 | 280 | 9.7 | 19.3 | 0.00 | 0.00 | 0.00 | 25 | 1011.9 |
| 20260507221534 | 21 | 257 | 9.7 | 20.9 | 0.00 | 0.00 | 0.00 | 28 | 1012.2 |
| 20260507220022 | 22 | 214 | 8.0 | 14.5 | 0.00 | 0.00 | 0.00 | 27 | 1012.3 |
| 20260507214520 | 21 | 231 | 12.9 | 22.5 | 0.00 | 0.00 | 0.00 | 28 | 1012.5 |
| 20260507213017 | 21 | 290 | 12.9 | 19.3 | 0.00 | 0.00 | 0.00 | 30 | 1012.6 |
| 20260507211521 | 21 | 180 | 8.0 | 24.1 | 0.00 | 0.00 | 0.00 | 30 | 1012.8 |
| 20260507210012 | 20 | 281 | 8.0 | 19.3 | 0.00 | 0.00 | 0.00 | 29 | 1013.0 |
| 20260507204511 | 20 | 298 | 16.1 | 27.4 | 0.00 | 0.00 | 0.00 | 29 | 1013.2 |
| 20260507203010 | 20 | 143 | 4.8 | 19.3 | 0.00 | 0.00 | 0.00 | 35 | 1013.3 |
| 20260507201506 | 20 | 277 | 6.4 | 19.3 | 0.00 | 0.00 | 0.00 | 34 | 1013.5 |
| 20260507200003 | 19 | 228 | 4.8 | 20.9 | 0.00 | 0.00 | 0.00 | 37 | 1013.6 |
| 20260507194502 | 19 | 285 | 6.4 | 17.7 | 0.00 | 0.00 | 0.00 | 38 | 1013.7 |
| 20260507193101 | 18 | 273 | 4.8 | 22.5 | 0.00 | 0.00 | 0.00 | 40 | 1013.8 |
| 20260507191603 | 18 | 273 | 12.9 | 17.7 | 0.00 | 0.00 | 0.00 | 40 | 1013.8 |
| 20260507190104 | 18 | 219 | 8.0 | 16.1 | 0.00 | 0.00 | 0.00 | 41 | 1014.0 |
| 20260507184600 | 18 | 219 | 12.9 | 20.9 | 0.00 | 0.00 | 0.00 | 40 | 1014.1 |
| 20260507183053 | 18 | 285 | 8.0 | 12.9 | 0.00 | 0.00 | 0.00 | 42 | 1014.2 |
| 20260507181552 | 18 | 263 | 8.0 | 17.7 | 0.00 | 0.00 | 0.00 | 48 | 1014.2 |
| 20260507180051 | 17 | 270 | 4.8 | 12.9 | 0.00 | 0.00 | 0.00 | 49 | 1014.2 |
| 20260507174649 | 17 | 142 | 3.2 | 9.7 | 0.00 | 0.00 | 0.00 | 51 | 1014.4 |
| 20260507173046 | 17 | 191 | 8.0 | 12.9 | 0.00 | 0.00 | 0.00 | 52 | 1014.3 |
| 20260507171543 | 16 | 210 | 3.2 | 11.3 | 0.00 | 0.00 | 0.00 | 54 | 1014.5 |
| 20260507170040 | 16 | 201 | 4.8 | 12.9 | 0.00 | 0.00 | 0.00 | 56 | 1014.5 |
| 20260507164550 | 16 | 195 | 1.6 | 12.9 | 0.00 | 0.00 | 0.00 | 58 | 1014.6 |
| 20260507163037 | 16 | 225 | 4.8 | 9.7 | 0.00 | 0.00 | 0.00 | 60 | 1014.5 |
| 20260507161538 | 15 | 257 | 8.0 | 16.1 | 0.00 | 0.00 | 0.00 | 62 | 1014.7 |
| 20260507160036 | 14 | 309 | 6.4 | 9.7 | 0.00 | 0.00 | 0.00 | 64 | 1014.8 |
| 20260507154539 | 13 | 211 | 1.6 | 9.7 | 0.00 | 0.00 | 0.00 | 65 | 1014.6 |
| 20260507153035 | 13 | 127 | 0.0 | 6.4 | 0.00 | 0.00 | 0.00 | 66 | 1014.7 |
| 20260507151534 | 12 | 103 | 4.8 | 9.7 | 0.00 | 0.00 | 0.00 | 71 | 1014.7 |
| 20260507150033 | 10 | 82 | 8.0 | 14.5 | 0.00 | 0.00 | 0.00 | 75 | 1014.7 |
| 20260507144533 | 9 | 109 | 9.7 | 12.9 | 0.00 | 0.00 | 0.00 | 78 | 1014.5 |
| 20260507143034 | 9 | 145 | 3.2 | 6.4 | 0.00 | 0.00 | 0.00 | 77 | 1014.5 |
| 20260507141527 | 10 | 83 | 0.0 | 3.2 | 0.00 | 0.00 | 0.00 | 75 | 1014.3 |
| 20260507140027 | 9 | 84 | 1.6 | 8.0 | 0.00 | 0.00 | 0.00 | 75 | 1014.0 |
| 20260507134527 | 10 | 95 | 3.2 | 9.7 | 0.00 | 0.00 | 0.00 | 74 | 1013.9 |
| 20260507133024 | 9 | 84 | 8.0 | 12.9 | 0.00 | 0.00 | 0.00 | 76 | 1013.6 |
| 20260507131517 | -17 | 0.0 | 0.0 | 0.00 | 0.00 | 0.00 | 1013.5 | ||
| 20260507130013 | -17 | 0.0 | 0.0 | 0.00 | 0.00 | 0.00 | 1013.5 | ||
| 20260507124511 | -17 | 0.0 | 0.0 | 0.00 | 0.00 | 0.00 | 1013.6 | ||
| 20260507123007 | -17 | 0.0 | 0.0 | 0.00 | 0.00 | 0.00 | 1013.5 | ||
| 20260507121621 | -17 | 0.0 | 0.0 | 0.00 | 0.00 | 0.00 | 1013.5 | ||
| 20260507120100 | -17 | 0.0 | 0.0 | 0.00 | 0.00 | 0.00 | 1013.5 | ||
| 20260507114633 | -17 | 0.0 | 0.0 | 0.00 | 0.00 | 0.00 | 1013.6 | ||
| 20260507113047 | -17 | 0.0 | 0.0 | 0.00 | 0.00 | 0.00 | 1013.6 | ||
| 20260507111547 | -17 | 0.0 | 0.0 | 0.00 | 0.00 | 0.00 | 1013.6 | ||
| 20260507110040 | -17 | 0.0 | 0.0 | 0.00 | 0.00 | 0.00 | 1013.6 | ||
| 20260507104536 | -17 | 0.0 | 0.0 | 0.00 | 0.00 | 0.00 | 1013.5 | ||
| 20260507103031 | -17 | 0.0 | 0.0 | 0.00 | 0.00 | 0.00 | 1013.5 | ||
| 20260507101528 | -17 | 0.0 | 0.0 | 0.00 | 0.00 | 0.00 | 1013.7 | ||
| 20260507100023 | 11 | 51 | 8.0 | 9.7 | 0.00 | 0.00 | 0.00 | 66 | 1013.8 |
| 20260507094521 | 11 | 87 | 6.4 | 8.0 | 0.00 | 0.00 | 0.00 | 67 | 1013.7 |
| 20260507093019 | 11 | 94 | 6.4 | 9.7 | 0.00 | 0.00 | 0.00 | 64 | 1013.6 |
| 20260507091522 | 13 | 323 | 3.2 | 4.8 | 0.00 | 0.00 | 0.00 | 57 | 1013.4 |
| 20260507090022 | 13 | 61 | 0.0 | 4.8 | 0.00 | 0.00 | 0.00 | 54 | 1013.5 |
| 20260507084513 | 12 | 65 | 3.2 | 11.3 | 0.00 | 0.00 | 0.00 | 61 | 1013.5 |
| 20260507083010 | 13 | 87 | 1.6 | 3.2 | 0.00 | 0.00 | 0.00 | 55 | 1013.3 |
| 20260507081507 | 13 | 88 | 3.2 | 6.4 | 0.00 | 0.00 | 0.00 | 57 | 1013.3 |
| 20260507080005 | 15 | 96 | 3.2 | 6.4 | 0.00 | 0.00 | 0.00 | 52 | 1013.0 |
| 20260507074505 | 13 | 85 | 6.4 | 9.7 | 0.00 | 0.00 | 0.00 | 56 | 1013.1 |
| 20260507073003 | 14 | 82 | 6.4 | 8.0 | 0.00 | 0.00 | 0.00 | 56 | 1013.1 |
| 20260507071559 | 15 | 81 | 3.2 | 6.4 | 0.00 | 0.00 | 0.00 | 52 | 1013.0 |
| 20260507070056 | 16 | 335 | 0.0 | 4.8 | 0.00 | 0.00 | 0.00 | 49 | 1013.1 |
| 20260507064559 | 15 | 219 | 1.6 | 3.2 | 0.00 | 0.00 | 0.00 | 49 | 1013.0 |
| 20260507063104 | 15 | 91 | 1.6 | 6.4 | 0.00 | 0.00 | 0.00 | 51 | 1012.8 |
| 20260507061554 | 16 | 242 | 6.4 | 9.7 | 0.00 | 0.00 | 0.00 | 47 | 1012.7 |
| 20260507060053 | 16 | 273 | 4.8 | 8.0 | 0.00 | 0.00 | 0.00 | 48 | 1012.8 |
| 20260507054552 | 16 | 311 | 3.2 | 8.0 | 0.00 | 0.00 | 0.00 | 49 | 1012.8 |
| 20260507053052 | 17 | 238 | 8.0 | 14.5 | 0.00 | 0.00 | 0.00 | 46 | 1012.7 |
| 20260507051551 | 17 | 256 | 12.9 | 17.7 | 0.00 | 0.00 | 0.00 | 45 | 1012.6 |
| 20260507050050 | 17 | 287 | 4.8 | 9.7 | 0.00 | 0.00 | 0.00 | 44 | 1012.6 |
| 20260507044550 | 18 | 238 | 4.8 | 9.7 | 0.00 | 0.00 | 0.00 | 44 | 1012.7 |
| 20260507043049 | 18 | 236 | 11.3 | 19.3 | 0.00 | 0.00 | 0.00 | 42 | 1012.6 |
| 20260507041551 | 19 | 262 | 12.9 | 25.7 | 0.00 | 0.00 | 0.00 | 41 | 1012.4 |
| 20260507040053 | 20 | 229 | 16.1 | 27.4 | 0.00 | 0.00 | 0.00 | 40 | 1012.4 |
| 20260507034551 | 20 | 226 | 17.7 | 29.0 | 0.00 | 0.00 | 0.00 | 39 | 1012.2 |
| 20260507033050 | 20 | 224 | 20.9 | 30.6 | 0.00 | 0.00 | 0.00 | 39 | 1012.0 |
| 20260507031545 | 20 | 235 | 17.7 | 38.6 | 0.00 | 0.00 | 0.00 | 39 | 1011.8 |
| 20260507030045 | 21 | 242 | 22.5 | 30.6 | 0.00 | 0.00 | 0.00 | 38 | 1011.4 |
| 20260507024546 | 21 | 239 | 17.7 | 32.2 | 0.00 | 0.00 | 0.00 | 37 | 1011.3 |
| 20260507023049 | 21 | 239 | 25.7 | 38.6 | 0.00 | 0.00 | 0.00 | 37 | 1011.3 |
| 20260507021545 | 21 | 219 | 14.5 | 24.1 | 0.00 | 0.00 | 0.00 | 40 | 1011.2 |
| 20260507020104 | 21 | 264 | 11.3 | 19.3 | 0.00 | 0.00 | 0.00 | 40 | 1011.0 |
| 20260507014541 | 22 | 256 | 19.3 | 35.4 | 0.00 | 0.00 | 0.00 | 38 | 1010.9 |
| 20260507013049 | 22 | 235 | 11.3 | 19.3 | 0.00 | 0.00 | 0.00 | 41 | 1010.7 |
| 20260507011538 | 22 | 256 | 14.5 | 27.4 | 0.00 | 0.00 | 0.00 | 39 | 1010.6 |
| 20260507010039 | 23 | 249 | 22.5 | 32.2 | 0.00 | 0.00 | 0.00 | 36 | 1010.5 |
| 20260507004547 | 23 | 264 | 19.3 | 30.6 | 0.00 | 0.00 | 0.00 | 35 | 1010.3 |
| 20260507003043 | 24 | 245 | 14.5 | 22.5 | 0.00 | 0.00 | 0.00 | 35 | 1010.4 |